Flight Track Log - Related Links

Times and Time Zones

All times are in EDT time to prevent confusion due to time zone crossing. See the AAL2203 flight status page for this flight to view local times or setup timezone preferences in your user account.

Time Position Orientation Groundspeed Altitude Reporting Facility
EDT Latitude Longitude Course Direction KTS MPH feet Rate Location/Type
Tue 07:49:08 PM 28.4313 -81.3221 179° South 173 199 500  Level FlightAware ADS-B
Tue 07:49:28 PM 28.4095 -81.3226 193° South 185 213 1,500 2,550 Climbing FlightAware ADS-B
Tue 07:49:48 PM 28.3922 -81.3281 196° South 205 236 2,200 2,400 Climbing FlightAware ADS-B
Tue 07:50:08 PM 28.3761 -81.3334 196° South 215 247 3,100 2,769 Climbing FlightAware ADS-B
Tue 07:50:27 PM 28.3537 -81.3416 208° Southwest 232 267 4,000 2,800 Climbing FlightAware ADS-B
Tue 07:50:38 PM 28.3456 -81.3500 233° Southwest 228 262 4,500 3,143 Climbing FlightAware ADS-B
Tue 07:50:48 PM 28.3412 -81.3616 255° West 229 264 5,100 3,300 Climbing FlightAware ADS-B
Tue 07:50:58 PM 28.3402 -81.3732 268° West 239 275 5,600 3,000 Climbing FlightAware ADS-B
Tue 07:51:18 PM 28.3390 -81.3998 266° West 250 288 6,600 2,927 Climbing FlightAware ADS-B
Tue 07:51:39 PM 28.3377 -81.4273 268° West 259 298 7,600 1,756 Climbing FlightAware ADS-B
Tue 07:51:59 PM 28.3369 -81.4539 268° West 264 304 7,800 439 Climbing FlightAware ADS-B
Tue 07:52:20 PM 28.3363 -81.4845 269° West 262 302 7,900 400 Climbing FlightAware ADS-B
Tue 07:52:29 PM 28.3372 -81.4960 280° West 263 303 8,000 1,400 Climbing FlightAware ADS-B
Tue 07:52:50 PM 28.3455 -81.5229 291° West 269 310 8,600 3,294 Climbing FlightAware ADS-B
Tue 07:53:20 PM 28.3595 -81.5622 294° West 254 292 10,800 2,900 Climbing FlightAware ADS-B
Tue 07:53:50 PM 28.3762 -81.6008 297° West 295 339 11,500 2,000 Climbing FlightAware ADS-B
Tue 07:54:20 PM 28.3924 -81.6428 278° West 293 337 12,800 2,700 Climbing FlightAware ADS-B
Tue 07:54:30 PM 28.3927 -81.6602 266° West 285 328 13,300 3,000 Climbing FlightAware ADS-B
Tue 07:54:40 PM 28.3901 -81.6747 255° West 280 322 13,800 3,164 Climbing FlightAware ADS-B
Tue 07:55:25 PM 28.3768 -81.7327 256° West 290 334 16,200 3,200 Climbing FlightAware ADS-B
Tue 07:55:55 PM 28.3662 -81.7826 257° West 293 337 17,800 3,138 Climbing FlightAware ADS-B
Tue 07:56:30 PM 28.3550 -81.8344 256° West 293 337 19,600 2,400 Climbing FlightAware ADS-B
Tue 07:57:20 PM 28.3380 -81.9128 256° West 303 349 21,200 2,207 Climbing FlightAware ADS-B
Tue 07:57:57 PM 28.3255 -81.9702 256° West 306 352 22,800 2,318 Climbing FlightAware ADS-B
Tue 07:58:48 PM 28.3081 -82.0494 256° West 318 366 24,600 2,071 Climbing FlightAware ADS-B
Tue 07:59:21 PM 28.2988 -82.0922 256° West 321 369 25,700 2,143 Climbing FlightAware ADS-B
Tue 08:00:12 PM 28.2775 -82.1889 256° West 327 376 27,600 1,934 Climbing FlightAware ADS-B
Tue 08:01:22 PM 28.2567 -82.3052 263° West 343 395 29,600 1,440 Climbing FlightAware ADS-B
Tue 08:01:52 PM 28.2503 -82.3616 263° West 356 410 30,000 242 Climbing FlightAware ADS-B
Tue 08:03:01 PM 28.2357 -82.4887 263° West 372 428 30,000  Level FlightAware ADS-B
Tue 08:04:15 PM 28.2186 -82.6217 263° West 374 430 30,000 -36 Level Jacksonville Center
Tue 08:05:47 PM 28.1997 -82.8072 263° West 372 428 29,900  Descending Miami Center
Tue 08:06:49 PM 28.1847 -82.9222 262° West 372 428 30,000 49 Climbing Miami Center
Tue 08:07:50 PM 28.1692 -83.0400 262° West 373 429 30,000  Level Miami Center
Tue 08:08:52 PM 28.1564 -83.1564 263° West 374 430 30,000 293 Level Miami Center
Tue 08:09:53 PM 28.1414 -83.2722 262° West 374 430 30,600 1,268 Climbing Miami Center
Tue 08:10:55 PM 28.1269 -83.3842 262° West 366 421 32,600 1,659 Climbing Miami Center
Tue 08:11:56 PM 28.1108 -83.5158 262° West 357 411 34,000 634 Climbing Miami Center
Tue 08:12:58 PM 28.0992 -83.6267 263° West 357 411 33,900 -49 Descending Miami Center
Tue 08:13:59 PM 28.0858 -83.7358 262° West 355 409 33,900  Level Miami Center
Tue 08:15:01 PM 28.0717 -83.8456 262° West 354 407 33,900 49 Level Miami Center
Tue 08:16:02 PM 28.0586 -83.9544 262° West 353 406 34,000 49 Climbing Miami Center
Tue 08:17:04 PM 28.0444 -84.0633 262° West 352 405 34,000  Level Miami Center
Tue 08:18:05 PM 28.0300 -84.1733 262° West 352 405 34,000  Level Miami Center
Tue 08:19:07 PM 28.0156 -84.2831 262° West 352 405 34,000 -49 Level Miami Center
Tue 08:20:08 PM 27.9978 -84.4147 261° West 353 406 33,900  Descending Miami Center
Tue 08:21:09 PM 27.9836 -84.5292 262° West 355 409 34,000 49 Climbing Miami Center
Tue 08:22:11 PM 27.9694 -84.6392 262° West 355 409 34,000  Level Miami Center
Tue 08:23:26 PM 27.9506 -84.7672 261° West 356 410 34,000  Level Jacksonville Center
Tue 08:24:26 PM 27.9322 -84.8867 260° West 356 410 34,000 -50 Level Jacksonville Center
Tue 08:25:26 PM 27.9222 -84.9853 263° West 353 406 33,900  Descending Jacksonville Center
Tue 08:26:27 PM 27.9081 -85.0906 261° West 351 404 34,000 50 Climbing Jacksonville Center
Tue 08:27:27 PM 27.8914 -85.2006 260° West 351 404 34,000  Level Jacksonville Center
Tue 08:28:26 PM 27.9000 -85.3042 275° West 351 404 34,000 -50 Level Jacksonville Center
Tue 08:29:26 PM 27.9311 -85.4222 287° West 359 413 33,900 -50 Descending Jacksonville Center
Tue 08:30:26 PM 27.9664 -85.5358 289° West 366 421 33,900 50 Level Jacksonville Center
Tue 08:31:27 PM 27.9994 -85.6450 289° West 371 427 34,000 50 Climbing Jacksonville Center
Tue 08:32:26 PM 28.0306 -85.7539 288° West 365 420 34,000  Level Jacksonville Center
Tue 08:33:26 PM 28.0656 -85.8653 290° West 370 426 34,000 -50 Level Jacksonville Center
Tue 08:34:26 PM 28.0964 -85.9675 289° West 369 425 33,900 -34 Descending Jacksonville Center
Tue 08:36:25 PM 28.1594 -86.1717 289° West 357 411 33,900  Level Houston Center
Tue 08:37:26 PM 28.1928 -86.2858 288° West 356 410 33,900  Level Jacksonville Center
Tue 08:38:27 PM 28.2236 -86.3881 289° West 356 410 33,900 50 Level Jacksonville Center
Tue 08:39:26 PM 28.2581 -86.5000 289° West 357 411 34,000 50 Climbing Jacksonville Center
Tue 08:40:27 PM 28.3011 -86.5936 298° West 357 411 34,000  Level Jacksonville Center
Tue 08:41:26 PM 28.3544 -86.7017 299° West 365 420 34,000  Level Jacksonville Center
Tue 08:42:26 PM 28.3994 -86.8000 298° West 372 428 34,000  Level Jacksonville Center
Tue 08:44:26 PM 28.4972 -87.0094 298° West 371 427 34,000  Level Jacksonville Center
Tue 08:46:44 PM 28.6103 -87.2464 297° West 365 420 34,000  Level Houston Center
Tue 08:47:46 PM 28.6581 -87.3494 298° West 365 420 34,000 532 Level Houston Center
Tue 08:48:48 PM 28.7061 -87.4553 297° West 372 428 35,100 968 Climbing Houston Center
Tue 08:49:50 PM 28.7558 -87.5603 298° West 376 433 36,000 435 Climbing Houston Center
Tue 08:50:52 PM 28.8061 -87.6678 298° West 378 435 36,000 435 Level Houston Center
Tue 08:51:54 PM 28.8550 -87.7736 298° West 379 436 36,900 976 Climbing Houston Center
Tue 08:52:55 PM 28.9028 -87.8769 298° West 373 429 38,000 537 Climbing Houston Center
Tue 08:53:57 PM 28.9600 -88.0042 297° West 373 429 38,000 -48 Level Houston Center
Tue 08:54:59 PM 29.0047 -88.1022 298° West 374 430 37,900  Descending Houston Center
Tue 08:56:01 PM 29.0531 -88.2092 297° West 375 432 38,000 48 Climbing Houston Center
Tue 08:57:03 PM 29.1022 -88.3156 298° West 377 434 38,000  Level Houston Center
Tue 08:58:05 PM 29.1597 -88.4444 297° West 377 434 38,000  Level Houston Center
Tue 08:59:06 PM 29.2072 -88.5511 297° West 377 434 38,000 -49 Level Houston Center
Tue 09:00:08 PM 29.2558 -88.6569 298° West 377 434 37,900 -48 Descending Houston Center
Tue 09:01:10 PM 29.3042 -88.7631 298° West 377 434 37,900 48 Level Houston Center
Tue 09:02:12 PM 29.3594 -88.8639 302° West 376 433 38,000 49 Climbing Houston Center
Tue 09:03:13 PM 29.4150 -88.9667 302° West 376 433 38,000 -49 Level Houston Center
Tue 09:04:15 PM 29.4700 -89.0667 302° West 376 433 37,900  Descending Houston Center
Tue 09:05:17 PM 29.5350 -89.1872 302° West 372 428 38,000  Climbing Houston Center
Tue 09:06:18 PM 29.5894 -89.2861 302° West 372 428 37,900 -49 Descending Houston Center
Tue 09:07:20 PM 29.6433 -89.3861 302° West 370 426 37,900 48 Level Houston Center
Tue 09:08:22 PM 29.6972 -89.4894 301° West 371 427 38,000 49 Climbing Houston Center
Tue 09:09:23 PM 29.7514 -89.5897 302° West 371 427 38,000  Level Houston Center
Tue 09:10:25 PM 29.8050 -89.6914 301° West 371 427 38,000  Level Houston Center
Tue 09:11:27 PM 29.8589 -89.7900 302° West 366 421 38,000  Level Houston Center
Tue 09:12:28 PM 29.9108 -89.8889 301° West 363 418 38,000  Level Houston Center
Tue 09:13:30 PM 29.9633 -89.9872 302° West 359 413 38,000 -49 Level Houston Center
Tue 09:14:31 PM 30.0261 -90.1078 301° West 359 413 37,900  Descending Houston Center
Tue 09:15:33 PM 30.0797 -90.2069 302° West 360 414 38,000  Climbing Houston Center
Tue 09:16:35 PM 30.1322 -90.3075 301° West 361 415 37,900  Descending Houston Center
Tue 09:22:44 PM 30.4627 -90.9389 302° West 370 426 38,000 15 Climbing FlightAware ADS-B (KHOU)
Tue 09:23:12 PM 30.4744 -90.9615 301° West 369 425 38,000  Level FlightAware ADS-B (KHOU)
Tue 09:23:45 PM 30.5147 -91.0394 301° West 369 425 38,000  Level FlightAware ADS-B (KHOU)
Tue 09:24:14 PM 30.5384 -91.0850 301° West 369 425 38,000  Level FlightAware ADS-B (KHOU)
Tue 09:24:44 PM 30.5682 -91.1427 301° West 369 425 38,000  Level FlightAware ADS-B (KHOU)
Tue 09:25:15 PM 30.5956 -91.1960 301° West 370 426 38,000  Level FlightAware ADS-B (KHOU)
Tue 09:25:30 PM 30.6034 -91.2111 301° West 370 426 38,000  Level FlightAware ADS-B (KHOU)
Tue 09:27:19 PM 30.7023 -91.4038 301° West 371 427 38,000  Level FlightAware ADS-B (KHOU)
Tue 09:27:49 PM 30.7313 -91.4603 301° West 369 425 38,000  Level FlightAware ADS-B (KHOU)
Tue 09:28:20 PM 30.7543 -91.5052 301° West 368 423 38,000  Level FlightAware ADS-B (KHOU)
Tue 09:28:30 PM 30.7630 -91.5222 301° West 368 423 38,000  Level FlightAware ADS-B (KHOU)
Tue 09:34:05 PM 31.0587 -92.1055 301° West 378 435 38,000  Level FlightAware ADS-B (KHOU)
Tue 09:34:34 PM 31.0842 -92.1560 301° West 377 434 38,000  Level FlightAware ADS-B (KHOU)
Tue 09:35:04 PM 31.1110 -92.2095 301° West 377 434 38,000  Level FlightAware ADS-B (KHOU)
Tue 09:35:34 PM 31.1377 -92.2628 301° West 376 433 38,000  Level FlightAware ADS-B (KHOU)
Tue 09:36:04 PM 31.1587 -92.3049 301° West 376 433 38,000  Level FlightAware ADS-B (KHOU)
Tue 09:37:04 PM 31.2171 -92.4216 301° West 382 440 38,000  Level FlightAware ADS-B (KHOU)
Tue 09:37:34 PM 31.2435 -92.4743 301° West 384 442 38,000  Level FlightAware ADS-B (KHOU)
Tue 09:38:29 PM 31.2840 -92.5728 294° West 379 436 38,000  Level FlightAware ADS-B (KHOU)
Tue 09:38:59 PM 31.3060 -92.6306 294° West 377 434 38,000  Level FlightAware ADS-B (KHOU)
Tue 09:39:29 PM 31.3281 -92.6894 294° West 379 436 38,000  Level FlightAware ADS-B (KHOU)
Tue 09:39:59 PM 31.3489 -92.7447 294° West 378 435 38,000  Level FlightAware ADS-B (KHOU)
Tue 09:40:29 PM 31.3699 -92.8003 294° West 377 434 38,000  Level FlightAware ADS-B (KHOU)
Tue 09:40:59 PM 31.3912 -92.8570 294° West 374 430 38,000  Level FlightAware ADS-B (KHOU)
Tue 09:41:29 PM 31.4121 -92.9127 294° West 375 432 38,000  Level FlightAware ADS-B (KHOU)
Tue 09:42:00 PM 31.4333 -92.9693 294° West 375 432 38,000  Level FlightAware ADS-B (KHOU)
Tue 09:42:29 PM 31.4539 -93.0241 294° West 375 432 38,000  Level FlightAware ADS-B (KHOU)
Tue 09:42:59 PM 31.4744 -93.0788 294° West 374 430 38,000  Level FlightAware ADS-B (KHOU)
Tue 09:43:29 PM 31.4946 -93.1330 294° West 373 429 38,000  Level FlightAware ADS-B (KHOU)
Tue 09:44:00 PM 31.5142 -93.1857 294° West 371 427 38,000  Level FlightAware ADS-B (KHOU)
Tue 09:44:49 PM 31.5502 -93.2825 294° West 368 423 38,000  Level FlightAware ADS-B
Tue 09:44:59 PM 31.5570 -93.3008 294° West 367 422 38,000  Level FlightAware ADS-B (KHOU)
Tue 09:45:29 PM 31.5773 -93.3555 294° West 367 422 38,000  Level FlightAware ADS-B (KHOU)
Tue 09:45:59 PM 31.5958 -93.4054 294° West 367 422 38,000  Level FlightAware ADS-B (KHOU)
Tue 09:46:29 PM 31.6175 -93.4643 294° West 366 421 38,000  Level FlightAware ADS-B (KHOU)
Tue 09:47:00 PM 31.6380 -93.5199 294° West 368 423 38,000  Level FlightAware ADS-B (KHOU)
Tue 09:47:20 PM 31.6500 -93.5523 293° West 369 425 38,000  Level FlightAware ADS-B
Tue 09:47:29 PM 31.6582 -93.5747 294° West 370 426 38,000  Level FlightAware ADS-B (KHOU)
Tue 09:47:50 PM 31.6720 -93.6122 293° West 370 426 38,000  Level FlightAware ADS-B
Tue 09:47:59 PM 31.6765 -93.6246 294° West 370 426 38,000  Level FlightAware ADS-B (KHOU)
Tue 09:48:29 PM 31.6986 -93.6849 294° West 370 426 38,000  Level FlightAware ADS-B (KHOU)
Tue 09:48:59 PM 31.7189 -93.7401 294° West 370 426 38,000  Level FlightAware ADS-B (KHOU)
Tue 09:49:21 PM 31.7335 -93.7800 293° West 371 427 38,000  Level FlightAware ADS-B
Tue 09:49:29 PM 31.7393 -93.7959 294° West 370 426 38,000  Level FlightAware ADS-B (KHOU)
Tue 09:49:51 PM 31.7512 -93.8365 286° West 371 427 38,000  Level FlightAware ADS-B
Tue 09:49:59 PM 31.7547 -93.8534 284° West 371 427 38,000  Level FlightAware ADS-B (KHOU)
Tue 09:50:30 PM 31.7666 -93.9124 284° West 371 427 38,000  Level FlightAware ADS-B (KHOU)
Tue 09:50:59 PM 31.7779 -93.9700 284° West 372 428 38,000  Level FlightAware ADS-B (KHOU)
Tue 09:51:00 PM 31.7783 -93.9722 283° West 373 429 38,000  Level FlightAware ADS-B
Tue 09:51:29 PM 31.7897 -94.0304 283° West 373 429 38,000  Level FlightAware ADS-B (KHOU)
Tue 09:51:31 PM 31.7903 -94.0333 283° West 373 429 38,000  Level FlightAware ADS-B
Tue 09:51:59 PM 31.8013 -94.0895 283° West 373 429 38,000  Level FlightAware ADS-B (KHOU)
Tue 09:52:01 PM 31.8018 -94.0925 283° West 375 432 38,000  Level FlightAware ADS-B
Tue 09:52:29 PM 31.8120 -94.1444 283° West 375 432 38,000  Level FlightAware ADS-B (KHOU)
Tue 09:52:59 PM 31.8245 -94.2083 283° West 375 432 38,000  Level FlightAware ADS-B (KHOU)
Tue 09:53:29 PM 31.8362 -94.2684 283° West 374 430 38,000  Level FlightAware ADS-B (KHOU)
Tue 09:53:59 PM 31.8477 -94.3273 283° West 372 428 38,000  Level FlightAware ADS-B (KHOU)
Tue 09:54:00 PM 31.8482 -94.3295 283° West 371 427 38,000  Level FlightAware ADS-B
Tue 09:54:30 PM 31.8593 -94.3863 283° West 369 425 38,000  Level FlightAware ADS-B (KHOU)
Tue 09:54:59 PM 31.8703 -94.4443 283° West 368 423 38,000  Level FlightAware ADS-B (KHOU)
Tue 09:55:10 PM 31.8745 -94.4665 282° West 368 423 38,000  Level FlightAware ADS-B
Tue 09:55:29 PM 31.8815 -94.5033 283° West 367 422 38,000  Level FlightAware ADS-B (KHOU)
Tue 09:55:47 PM 31.8879 -94.5363 283° West 367 422 38,000  Level FlightAware ADS-B
Tue 09:55:59 PM 31.8927 -94.5614 283° West 366 421 38,000  Level FlightAware ADS-B (KHOU)
Tue 09:56:29 PM 31.9035 -94.6180 283° West 366 421 38,000  Level FlightAware ADS-B (KHOU)
Tue 09:57:00 PM 31.9150 -94.6782 283° West 367 422 38,000  Level FlightAware ADS-B (KHOU)
Tue 09:57:32 PM 31.9288 -94.7407 288° West 365 420 38,000 -387 Level FlightAware ADS-B
Tue 09:58:02 PM 31.9446 -94.7980 288° West 366 421 37,600 -900 Descending FlightAware ADS-B
Tue 09:58:32 PM 31.9602 -94.8556 288° West 374 430 37,100 -1,000 Descending FlightAware ADS-B
Tue 09:59:02 PM 31.9760 -94.9148 288° West 381 438 36,600 -900 Descending FlightAware ADS-B
Tue 09:59:32 PM 31.9921 -94.9737 289° West 381 438 36,200 -885 Descending FlightAware ADS-B
Tue 10:00:03 PM 32.0086 -95.0338 288° West 386 444 35,700 -1,000 Descending FlightAware ADS-B
Tue 10:00:32 PM 32.0246 -95.0927 288° West 390 449 35,200 -1,017 Descending FlightAware ADS-B
Tue 10:01:02 PM 32.0407 -95.1522 288° West 393 452 34,700 -1,000 Descending FlightAware ADS-B
Tue 10:01:32 PM 32.0578 -95.2165 288° West 401 461 34,200 -947 Descending FlightAware ADS-B
Tue 10:01:59 PM 32.0719 -95.2698 288° West 400 460 33,800 -900 Descending FlightAware ADS-B
Tue 10:02:32 PM 32.0911 -95.3414 288° West 401 461 33,300 -952 Descending FlightAware ADS-B
Tue 10:03:02 PM 32.1079 -95.4037 288° West 405 466 32,800 -1,700 Descending FlightAware ADS-B
Tue 10:03:32 PM 32.1245 -95.4652 288° West 405 466 31,600 -2,600 Descending FlightAware ADS-B
Tue 10:04:02 PM 32.1412 -95.5278 288° West 396 456 30,200 -2,632 Descending FlightAware ADS-B
Tue 10:04:29 PM 32.1548 -95.5798 288° West 390 449 29,100 -2,700 Descending FlightAware ADS-B
Tue 10:05:02 PM 32.1735 -95.6509 288° West 379 436 27,500 -2,857 Descending FlightAware ADS-B
Tue 10:05:32 PM 32.1745 -95.6547 288° West 378 435 26,100 -2,557 Descending FlightAware ADS-B
Tue 10:06:03 PM 32.2039 -95.7666 288° West 363 418 24,900 -2,381 Descending FlightAware ADS-B
Tue 10:06:35 PM 32.2197 -95.8263 288° West 355 409 23,600 -2,557 Descending FlightAware ADS-B (KHOU)
Tue 10:07:04 PM 32.2341 -95.8809 288° West 348 400 22,300 -2,542 Descending FlightAware ADS-B (KHOU)
Tue 10:07:34 PM 32.2478 -95.9332 288° West 343 395 21,100 -2,300 Descending FlightAware ADS-B (KHOU)
Tue 10:08:04 PM 32.2615 -95.9863 288° West 337 388 20,000 -2,316 Descending FlightAware ADS-B (KHOU)
Tue 10:08:31 PM 32.2742 -96.0346 288° West 332 382 18,900 -2,300 Descending FlightAware ADS-B (KHOU)
Tue 10:09:04 PM 32.2891 -96.0915 288° West 322 371 17,700 -2,381 Descending FlightAware ADS-B (KHOU)
Tue 10:09:34 PM 32.3021 -96.1420 287° West 320 368 16,400 -2,164 Descending FlightAware ADS-B (KHOU)
Tue 10:10:05 PM 32.3167 -96.1833 287° West 319 367 15,500 -1,969 Descending Dallas / Fort Worth TRACON
Tue 10:10:38 PM 32.3289 -96.2442 283° West 320 368 14,300 -2,211 Descending Fort Worth Center
Tue 10:11:40 PM 32.3544 -96.3422 287° West 316 364 12,000 -1,610 Descending Fort Worth Center
Tue 10:12:41 PM 32.3783 -96.4372 287° West 309 356 11,000 -829 Descending Fort Worth Center
Tue 10:13:43 PM 32.4322 -96.5089 312° West 266 306 10,300 -780 Descending Fort Worth Center
Tue 10:14:44 PM 32.4778 -96.5636 315° West 238 274 9,400 -1,073 Descending Fort Worth Center
Tue 10:15:46 PM 32.5033 -96.6322 294° West 232 267 8,100 -1,561 Descending Fort Worth Center
Tue 10:16:47 PM 32.5292 -96.7078 292° West 230 265 6,200 -1,525 Descending Fort Worth Center
Tue 10:17:48 PM 32.5722 -96.7664 311° West 233 268 5,000 -585 Descending Fort Worth Center
Tue 10:18:50 PM 32.6158 -96.8228 313° West 233 268 5,000 -341 Level Fort Worth Center
Tue 10:19:51 PM 32.6586 -96.8808 311° West 233 268 4,300 -829 Descending Fort Worth Center
Tue 10:20:53 PM 32.7064 -96.9428 313° West 235 270 3,300 -780 Descending Fort Worth Center
Tue 10:21:54 PM 32.7447 -96.9947 311° West 212 244 2,700 -492 Descending Fort Worth Center
Tue 10:22:55 PM 32.7786 -97.0383 313° West 180 207 2,300 -439 Descending Fort Worth Center
Tue 10:23:57 PM 32.8189 -97.0511 345° North 141 162 1,800 -634 Descending Fort Worth Center
Tue 10:24:58 PM 32.8556 -97.0508 360° North 137 158 1,000 -634 Descending Fort Worth Center
Tue 10:26:00 PM 32.8889 -97.0508 360° North 136 157 500 -484 Descending Fort Worth Center

Login

Don't have an account? Register now (free) for customized features, flight alerts, and more!